Time;durP1;ratioP1;P1;durP2;ratioP2;P2;SDS_P1;SDS_P2;PMS_P1;PMS_P2;Temp;Humidity;BMP_temperature;BMP_pressure;BME280_temperature;BME280_humidity;BME280_pressure;Samples;Min_cycle;Max_cycle;Signal;HPM_P1;HPM_P2
2022/12/16 00:01:51;;;;;;;20.57;11.03;;;1.90;71.00;;;;;;4970662;28;46551;-64
2022/12/16 00:04:16;;;;;;;23.27;11.33;;;1.90;71.10;;;;;;4970931;28;46371;-64
2022/12/16 00:06:42;;;;;;;23.43;11.60;;;1.90;71.00;;;;;;4968030;28;46480;-65
2022/12/16 00:09:08;;;;;;;26.92;12.98;;;1.90;71.00;;;;;;4967647;28;46092;-64
2022/12/16 00:11:34;;;;;;;21.77;10.97;;;2.00;70.00;;;;;;4971462;28;46449;-64
2022/12/16 00:13:59;;;;;;;24.40;11.17;;;2.00;71.10;;;;;;4970341;28;46382;-65
2022/12/16 00:16:25;;;;;;;18.47;10.67;;;2.00;71.10;;;;;;4970686;28;46413;-64
2022/12/16 00:18:51;;;;;;;22.00;11.00;;;1.90;71.00;;;;;;4968834;28;46693;-65
2022/12/16 00:21:19;;;;;;;19.10;10.60;;;1.90;70.00;;;;;;4974237;28;46459;-64
2022/12/16 00:23:45;;;;;;;24.65;12.65;;;1.80;71.00;;;;;;4972803;28;46503;-64
2022/12/16 00:26:11;;;;;;;22.53;11.27;;;1.80;71.30;;;;;;4969637;28;47478;-65
2022/12/16 00:28:38;;;;;;;24.33;13.25;;;1.80;71.60;;;;;;4969824;28;46459;-64
2022/12/16 00:31:03;;;;;;;29.27;14.10;;;1.70;70.60;;;;;;4970274;28;46408;-64
2022/12/16 00:33:29;;;;;;;29.30;15.10;;;1.70;71.80;;;;;;4973621;28;46311;-64
2022/12/16 00:35:55;;;;;;;31.77;15.10;;;1.60;72.00;;;;;;4969746;28;46613;-63
2022/12/16 00:38:23;;;;;;;31.85;15.15;;;1.60;72.10;;;;;;4970248;28;46431;-64
2022/12/16 00:40:48;;;;;;;29.40;15.02;;;1.70;70.50;;;;;;4967402;28;46396;-64
2022/12/16 00:43:14;;;;;;;26.30;13.80;;;1.70;71.70;;;;;;4969785;28;46455;-64
2022/12/16 00:45:40;;;;;;;27.87;12.10;;;1.70;71.40;;;;;;4970761;28;46650;-64
2022/12/16 00:48:06;;;;;;;29.27;16.20;;;1.60;71.30;;;;;;4968583;28;46489;-64
2022/12/16 00:50:32;;;;;;;25.30;12.63;;;1.50;71.60;;;;;;4967241;28;45912;-64
2022/12/16 00:52:58;;;;;;;24.67;13.55;;;1.40;71.80;;;;;;4970356;28;46584;-65
2022/12/16 00:55:24;;;;;;;24.83;13.30;;;1.40;72.00;;;;;;4969933;28;46288;-64
2022/12/16 00:57:50;;;;;;;34.03;16.60;;;1.40;71.90;;;;;;4970305;28;46713;-64
2022/12/16 01:00:17;;;;;;;27.10;14.17;;;1.40;71.20;;;;;;4971863;28;46286;-64
2022/12/16 01:02:45;;;;;;;30.40;14.30;;;1.40;72.20;;;;;;4967650;28;46397;-64
2022/12/16 01:05:13;;;;;;;24.90;12.07;;;1.40;72.10;;;;;;4969221;28;47312;-63
2022/12/16 01:07:39;;;;;;;20.25;11.63;;;1.20;72.30;;;;;;4970721;28;46398;-64
2022/12/16 01:10:06;;;;;;;22.80;12.13;;;1.00;72.80;;;;;;4968626;28;46694;-64
2022/12/16 01:12:32;;;;;;;16.92;10.18;;;1.00;72.00;;;;;;4970821;28;46589;-63
2022/12/16 01:14:59;;;;;;;19.45;9.90;;;0.90;73.10;;;;;;4966649;28;46726;-65
2022/12/16 01:17:25;;;;;;;20.25;10.52;;;0.90;72.20;;;;;;4970356;28;46475;-64
2022/12/16 01:19:52;;;;;;;18.20;10.30;;;0.90;73.10;;;;;;4967895;28;45950;-65
2022/12/16 01:22:18;;;;;;;17.05;10.80;;;0.90;72.00;;;;;;4968477;28;46037;-64
2022/12/16 01:24:44;;;;;;;18.98;10.65;;;1.00;72.90;;;;;;4970797;28;46577;-64
2022/12/16 01:27:10;;;;;;;21.43;11.40;;;1.10;72.90;;;;;;4968881;28;46397;-65
2022/12/16 01:29:36;;;;;;;18.38;10.75;;;0.90;72.70;;;;;;4970379;28;46597;-64
2022/12/16 01:32:01;;;;;;;21.60;10.90;;;0.90;71.80;;;;;;4969464;28;46455;-64
2022/12/16 01:34:27;;;;;;;23.23;11.30;;;0.90;72.80;;;;;;4966605;28;47569;-65
2022/12/16 01:36:53;;;;;;;21.77;12.40;;;0.90;72.80;;;;;;4971403;28;46434;-64
2022/12/16 01:39:18;;;;;;;19.27;10.83;;;1.00;72.30;;;;;;4974194;28;46366;-64
2022/12/16 01:41:44;;;;;;;18.63;10.73;;;1.00;71.30;;;;;;4968863;28;46415;-64
2022/12/16 01:44:21;;;;;;;22.57;13.20;;;1.00;72.40;;;;;;4968884;28;47480;-64
2022/12/16 01:46:58;;;;;;;20.92;12.27;;;1.00;72.30;;;;;;4970049;28;46274;-64
2022/12/16 01:49:28;;;;;;;23.13;12.55;;;1.00;72.20;;;;;;4970618;28;46496;-65
2022/12/16 01:51:59;;;;;;;23.73;12.55;;;1.00;71.10;;;;;;4970838;28;46507;-65
2022/12/16 01:54:31;;;;;;;33.78;14.40;;;1.10;72.40;;;;;;4970326;28;46574;-65
2022/12/16 01:57:05;;;;;;;27.77;13.88;;;1.00;72.20;;;;;;4969765;28;45770;-65
2022/12/16 01:59:34;;;;;;;26.35;13.20;;;0.80;72.30;;;;;;4968625;28;46411;-65
2022/12/16 02:02:01;;;;;;;27.25;13.30;;;0.80;71.70;;;;;;4968138;28;45820;-64
2022/12/16 02:04:27;;;;;;;29.40;14.93;;;0.80;72.80;;;;;;4965725;28;46408;-64
2022/12/16 02:06:53;;;;;;;24.57;14.17;;;0.80;72.60;;;;;;4968184;28;46590;-64
2022/12/16 02:09:19;;;;;;;30.95;16.92;;;0.90;72.60;;;;;;4968278;28;46313;-64
2022/12/16 02:12:12;;;;;;;30.33;15.07;;;0.80;71.40;;;;;;4968483;28;46786;-64
2022/12/16 02:14:56;;;;;;;33.60;16.55;;;0.90;72.40;;;;;;4969593;28;46769;-64
2022/12/16 02:17:43;;;;;;;32.55;15.98;;;0.80;72.40;;;;;;4970356;28;46621;-64
2022/12/16 02:20:14;;;;;;;31.05;14.60;;;0.80;72.40;;;;;;4972224;28;46550;-62
2022/12/16 02:22:43;;;;;;;36.17;17.85;;;0.80;72.60;;;;;;4968892;28;46407;-63
2022/12/16 02:25:25;;;;;;;37.30;17.42;;;0.80;72.70;;;;;;4967801;28;46440;-64
2022/12/16 02:28:03;;;;;;;41.28;18.30;;;0.80;72.50;;;;;;4972027;28;46731;-63
2022/12/16 02:30:55;;;;;;;38.47;18.45;;;0.90;71.10;;;;;;4986015;28;46561;-62
2022/12/16 02:33:44;;;;;;;38.10;17.95;;;0.90;72.10;;;;;;4970150;28;46481;-63
2022/12/16 02:36:32;;;;;;;35.28;16.50;;;0.90;72.10;;;;;;4967215;28;46540;-63
2022/12/16 02:39:03;;;;;;;29.92;15.73;;;0.80;72.30;;;;;;4965565;28;46580;-63
2022/12/16 02:41:42;;;;;;;32.25;16.98;;;0.70;71.50;;;;;;4972062;28;46448;-63
2022/12/16 02:44:10;;;;;;;32.58;15.82;;;0.70;72.70;;;;;;4974363;28;46318;-63
2022/12/16 02:46:51;;;;;;;38.78;16.63;;;0.60;72.50;;;;;;4973439;28;46363;-63
2022/12/16 02:49:17;;;;;;;36.70;16.58;;;0.60;72.60;;;;;;4970911;28;46465;-64
2022/12/16 02:51:44;;;;;;;32.57;16.30;;;0.70;71.50;;;;;;4988691;28;46276;-64
2022/12/16 02:54:11;;;;;;;36.15;17.60;;;0.70;72.40;;;;;;4971234;28;46646;-65
2022/12/16 02:56:59;;;;;;;37.67;17.25;;;0.70;72.10;;;;;;4971441;28;47088;-64
2022/12/16 02:59:57;;;;;;;32.17;17.27;;;0.80;72.10;;;;;;4971992;28;46814;-65
2022/12/16 03:02:33;;;;;;;30.85;14.70;;;0.80;70.90;;;;;;4989613;28;46444;-64
2022/12/16 03:05:05;;;;;;;37.00;17.42;;;0.80;72.00;;;;;;4971086;28;46401;-64
2022/12/16 03:07:33;;;;;;;27.65;14.98;;;0.80;72.10;;;;;;4970768;28;46445;-64
2022/12/16 03:10:00;;;;;;;31.58;15.90;;;0.60;72.20;;;;;;4973018;28;46368;-64
2022/12/16 03:12:26;;;;;;;29.13;13.90;;;0.50;71.50;;;;;;4969457;28;46400;-64
2022/12/16 03:14:53;;;;;;;33.38;14.70;;;0.50;72.70;;;;;;4973038;28;45943;-64
2022/12/16 03:17:22;;;;;;;29.13;13.75;;;0.40;72.70;;;;;;4969412;28;47619;-65
2022/12/16 03:20:07;;;;;;;30.67;15.13;;;0.30;72.70;;;;;;4971410;28;46345;-64
2022/12/16 03:22:37;;;;;;;30.38;15.13;;;0.20;71.80;;;;;;4971021;28;46450;-65
2022/12/16 03:25:05;;;;;;;32.20;16.20;;;0.20;72.80;;;;;;4971019;28;46737;-64
2022/12/16 03:27:36;;;;;;;30.80;14.98;;;0.20;74.00;;;;;;4970193;28;47269;-64
2022/12/16 03:30:11;;;;;;;31.63;16.95;;;0.20;72.70;;;;;;4971692;28;46592;-64
2022/12/16 03:33:04;;;;;;;33.95;16.25;;;0.30;71.60;;;;;;4985674;28;46459;-64
2022/12/16 03:35:36;;;;;;;31.50;16.45;;;0.30;72.30;;;;;;4986367;28;46372;-64
2022/12/16 03:38:04;;;;;;;36.38;16.38;;;0.30;72.10;;;;;;4969460;28;46745;-64
2022/12/16 03:40:31;;;;;;;38.47;18.88;;;0.30;71.20;;;;;;4974291;28;46284;-64
2022/12/16 03:43:00;;;;;;;34.75;18.05;;;0.30;72.20;;;;;;4973852;28;46471;-64
2022/12/16 03:45:30;;;;;;;41.60;18.38;;;0.30;72.20;;;;;;4970063;28;46245;-63
2022/12/16 03:47:58;;;;;;;38.90;18.58;;;0.30;72.00;;;;;;4973874;28;47171;-64
2022/12/16 03:50:30;;;;;;;38.65;17.58;;;0.40;70.90;;;;;;4969043;28;46979;-64
2022/12/16 03:52:56;;;;;;;38.13;19.15;;;0.40;72.00;;;;;;4967390;28;46650;-64
2022/12/16 03:55:22;;;;;;;39.70;17.30;;;0.40;71.90;;;;;;4969251;28;46403;-64
2022/12/16 03:57:48;;;;;;;37.10;17.10;;;0.40;71.80;;;;;;4975885;28;46453;-64
2022/12/16 04:00:14;;;;;;;40.95;17.90;;;0.40;70.60;;;;;;4968419;28;46372;-65
2022/12/16 04:02:40;;;;;;;34.50;16.80;;;0.40;71.60;;;;;;4971356;28;46424;-65
2022/12/16 04:05:06;;;;;;;35.73;17.90;;;0.40;71.70;;;;;;4971035;28;46556;-65
2022/12/16 04:07:32;;;;;;;31.35;16.77;;;0.30;71.70;;;;;;4967568;28;46309;-63
2022/12/16 04:09:57;;;;;;;40.53;18.70;;;0.40;71.70;;;;;;4971112;28;46140;-65
2022/12/16 04:26:13;;;;;;;40.03;17.83;;;0.50;71.30;;;;;;4969617;28;45832;-64
2022/12/16 04:28:39;;;;;;;40.83;19.03;;;0.40;71.20;;;;;;4969633;28;46367;-63
2022/12/16 04:31:04;;;;;;;38.30;18.77;;;0.50;70.00;;;;;;4974840;28;46530;-63
